Time;durP1;ratioP1;P1;durP2;ratioP2;P2;SDS_P1;SDS_P2;PMS_P1;PMS_P2;Temp;Humidity;BMP_temperature;BMP_pressure;BME280_temperature;BME280_humidity;BME280_pressure;Samples;Min_cycle;Max_cycle;Signal;HPM_P1;HPM_P2
2023/03/22 00:01:18;;;;;;;8.73;3.83;;;11.10;99.90;;;;;;5092635;28;20234;-58
2023/03/22 00:03:46;;;;;;;6.60;3.47;;;11.00;99.90;;;;;;5092335;28;20232;-58
2023/03/22 00:06:13;;;;;;;6.30;3.43;;;10.90;99.90;;;;;;5092925;28;20287;-57
2023/03/22 00:08:41;;;;;;;6.40;3.90;;;10.80;99.90;;;;;;5092842;28;20211;-57
2023/03/22 00:11:08;;;;;;;6.60;3.60;;;10.80;99.90;;;;;;5092749;28;20208;-58
2023/03/22 00:13:36;;;;;;;8.63;3.80;;;10.70;99.90;;;;;;5092695;28;20228;-57
2023/03/22 00:16:03;;;;;;;7.30;3.10;;;10.60;99.90;;;;;;5092898;28;20204;-57
2023/03/22 00:18:30;;;;;;;6.40;3.57;;;10.60;99.90;;;;;;5092791;28;20242;-58
2023/03/22 00:20:59;;;;;;;6.57;3.77;;;10.50;99.90;;;;;;5092199;28;20235;-57
2023/03/22 00:23:27;;;;;;;4.63;3.20;;;10.50;99.90;;;;;;5092431;28;20228;-57
2023/03/22 00:25:55;;;;;;;5.40;3.50;;;10.30;99.90;;;;;;5093185;28;20215;-56
2023/03/22 00:28:23;;;;;;;6.00;3.50;;;10.20;99.90;;;;;;5092878;28;20200;-57
2023/03/22 00:30:55;;;;;;;5.87;3.20;;;10.10;99.90;;;;;;5092615;28;20575;-56
2023/03/22 00:33:22;;;;;;;5.10;3.50;;;10.10;99.90;;;;;;5096704;28;20234;-56
2023/03/22 00:35:50;;;;;;;7.97;3.47;;;10.00;99.90;;;;;;5097150;28;20227;-57
2023/03/22 00:38:17;;;;;;;7.87;2.93;;;9.90;99.90;;;;;;5097349;28;20204;-57
2023/03/22 00:40:44;;;;;;;6.93;3.30;;;9.90;99.90;;;;;;5096759;28;20660;-58
2023/03/22 00:43:12;;;;;;;6.10;3.23;;;9.90;99.90;;;;;;5097085;28;20231;-56
2023/03/22 00:45:41;;;;;;;4.80;3.10;;;9.90;99.90;;;;;;5096991;28;20580;-57
2023/03/22 00:48:08;;;;;;;5.50;3.10;;;10.00;99.90;;;;;;5097015;28;20208;-57
2023/03/22 00:50:35;;;;;;;3.53;2.87;;;10.00;99.90;;;;;;5096481;28;20632;-57
2023/03/22 00:53:02;;;;;;;8.07;2.87;;;10.00;99.90;;;;;;5097054;28;20227;-57
2023/03/22 00:55:30;;;;;;;6.07;3.40;;;10.10;99.90;;;;;;5096940;28;20211;-56
2023/03/22 00:57:57;;;;;;;4.73;3.00;;;10.10;99.90;;;;;;5097202;28;20644;-58
2023/03/22 01:00:26;;;;;;;3.13;2.77;;;10.10;99.90;;;;;;5096865;28;20228;-57
2023/03/22 01:02:58;;;;;;;3.93;2.70;;;9.90;99.90;;;;;;5096198;28;20232;-57
2023/03/22 01:05:27;;;;;;;5.93;3.10;;;9.80;99.90;;;;;;5096571;28;20228;-57
2023/03/22 01:07:54;;;;;;;4.57;2.87;;;9.70;99.90;;;;;;5096398;28;20676;-57
2023/03/22 01:10:21;;;;;;;4.53;3.30;;;9.60;99.90;;;;;;5096703;28;20196;-57
2023/03/22 01:12:48;;;;;;;5.37;2.50;;;9.50;99.90;;;;;;5095930;28;20235;-58
2023/03/22 01:15:14;;;;;;;5.33;2.70;;;9.50;99.90;;;;;;5096261;28;20204;-57
2023/03/22 01:17:43;;;;;;;3.67;2.73;;;9.50;99.90;;;;;;5096006;28;20672;-57
2023/03/22 01:20:11;;;;;;;7.37;2.80;;;9.40;99.90;;;;;;5096414;28;20220;-57
2023/03/22 01:22:37;;;;;;;5.37;2.87;;;9.50;99.90;;;;;;5096200;28;20228;-58
2023/03/22 01:25:05;;;;;;;5.60;2.90;;;9.50;99.90;;;;;;5096032;28;20211;-57
2023/03/22 01:27:31;;;;;;;4.23;2.73;;;9.60;99.90;;;;;;5095586;28;20212;-58
2023/03/22 01:29:58;;;;;;;5.67;2.80;;;9.60;99.90;;;;;;5095949;28;20212;-57
2023/03/22 01:32:25;;;;;;;6.80;3.00;;;9.60;99.90;;;;;;5095562;28;20726;-58
2023/03/22 01:34:53;;;;;;;3.93;2.60;;;9.60;99.90;;;;;;5095874;28;20205;-57
2023/03/22 01:37:24;;;;;;;3.53;2.50;;;9.50;99.90;;;;;;5095977;28;20211;-57
2023/03/22 01:39:51;;;;;;;4.20;2.53;;;9.40;99.90;;;;;;5095726;28;20235;-57
2023/03/22 01:42:19;;;;;;;5.80;2.90;;;9.30;99.90;;;;;;5095453;28;20701;-57
2023/03/22 01:45:25;;;;;;;3.70;2.47;;;9.30;99.90;;;;;;5094288;28;20211;-57
2023/03/22 01:47:56;;;;;;;7.43;2.70;;;9.20;99.90;;;;;;5079786;28;20664;-62
2023/03/22 01:50:25;;;;;;;4.80;2.43;;;9.20;99.90;;;;;;5095170;28;20207;-57
2023/03/22 01:52:55;;;;;;;5.40;2.87;;;9.20;99.90;;;;;;5094769;28;20619;-56
2023/03/22 01:55:23;;;;;;;3.03;2.47;;;9.10;99.90;;;;;;5095185;28;20215;-56
2023/03/22 01:57:51;;;;;;;5.10;2.60;;;9.00;99.90;;;;;;5095006;28;20273;-57
2023/03/22 02:00:19;;;;;;;3.50;2.30;;;9.00;99.90;;;;;;5094838;28;20232;-58
2023/03/22 02:02:49;;;;;;;5.53;2.80;;;9.00;99.90;;;;;;5094718;28;20239;-57
2023/03/22 02:05:17;;;;;;;5.80;2.53;;;9.00;99.90;;;;;;5095217;28;20216;-57
2023/03/22 02:07:46;;;;;;;3.47;2.70;;;9.10;99.90;;;;;;5094813;28;20204;-57
2023/03/22 02:10:14;;;;;;;4.37;2.37;;;9.10;99.90;;;;;;5095044;28;20262;-57
2023/03/22 02:12:55;;;;;;;3.07;2.10;;;9.10;99.90;;;;;;5094362;28;20425;-57
2023/03/22 02:15:25;;;;;;;5.27;2.50;;;9.00;99.90;;;;;;5094749;28;20207;-56
2023/03/22 02:18:05;;;;;;;3.63;2.37;;;8.90;99.90;;;;;;5094450;28;20591;-57
2023/03/22 02:21:05;;;;;;;5.03;2.60;;;8.90;99.90;;;;;;5094834;28;20262;-56
2023/03/22 02:24:13;;;;;;;4.70;2.40;;;8.80;99.90;;;;;;5094370;28;20235;-56
2023/03/22 02:26:58;;;;;;;4.47;2.70;;;8.80;99.90;;;;;;5083331;28;20207;-56
2023/03/22 02:29:31;;;;;;;3.87;2.67;;;8.80;99.90;;;;;;5094567;28;20656;-56
2023/03/22 02:32:33;;;;;;;5.17;2.50;;;8.70;99.90;;;;;;5094204;28;20211;-57
2023/03/22 02:35:24;;;;;;;4.30;2.73;;;8.60;99.90;;;;;;5068492;28;20207;-55
2023/03/22 02:38:24;;;;;;;5.60;2.70;;;8.60;99.90;;;;;;5094167;28;20215;-58
2023/03/22 02:41:00;;;;;;;4.27;2.73;;;8.50;99.90;;;;;;5094119;28;20228;-56
2023/03/22 02:43:37;;;;;;;4.50;2.50;;;8.30;99.90;;;;;;5094177;28;20255;-56
2023/03/22 02:46:08;;;;;;;5.50;2.70;;;8.20;99.90;;;;;;5094639;28;20208;-57
2023/03/22 02:48:40;;;;;;;3.93;2.70;;;8.10;99.90;;;;;;5094360;28;20227;-58
2023/03/22 02:51:11;;;;;;;4.20;2.17;;;8.10;99.90;;;;;;5094071;28;20295;-58
2023/03/22 02:53:43;;;;;;;9.30;3.20;;;8.00;99.90;;;;;;5094422;28;20231;-58
2023/03/22 02:56:16;;;;;;;4.80;2.47;;;8.00;99.90;;;;;;5093539;28;20234;-58
2023/03/22 02:58:46;;;;;;;5.57;2.90;;;8.00;99.90;;;;;;5094157;28;20592;-58
2023/03/22 03:01:18;;;;;;;3.90;2.43;;;7.90;99.90;;;;;;5093530;28;20320;-57
2023/03/22 03:03:49;;;;;;;2.57;2.30;;;7.90;99.90;;;;;;5094310;28;20236;-57
2023/03/22 03:06:19;;;;;;;4.27;2.53;;;7.90;99.90;;;;;;5093752;28;20208;-58
2023/03/22 03:08:50;;;;;;;6.27;2.90;;;7.90;99.90;;;;;;5093730;28;20212;-57
2023/03/22 03:11:19;;;;;;;3.33;2.43;;;7.90;99.90;;;;;;5093661;28;20251;-57
2023/03/22 03:13:47;;;;;;;4.83;2.90;;;7.90;99.90;;;;;;5093414;28;20320;-56
2023/03/22 03:16:16;;;;;;;4.63;2.80;;;7.90;99.90;;;;;;5093403;28;20203;-56
2023/03/22 03:18:50;;;;;;;4.03;2.80;;;7.80;99.90;;;;;;5093488;28;20682;-58
2023/03/22 03:21:28;;;;;;;4.57;2.73;;;7.80;99.90;;;;;;5093428;28;20582;-56
2023/03/22 03:24:17;;;;;;;3.20;2.30;;;7.80;99.90;;;;;;5093632;28;20224;-58
2023/03/22 03:26:56;;;;;;;2.73;2.43;;;7.80;99.90;;;;;;5093172;28;20204;-58
2023/03/22 03:29:39;;;;;;;9.30;2.90;;;7.80;99.90;;;;;;5093560;28;20200;-57
2023/03/22 03:32:09;;;;;;;3.10;2.80;;;7.80;99.90;;;;;;5093155;28;20627;-58
2023/03/22 03:34:44;;;;;;;6.10;2.90;;;7.80;99.90;;;;;;5093441;28;20212;-59
2023/03/22 03:37:16;;;;;;;4.30;3.13;;;7.80;99.90;;;;;;5093120;28;20210;-58
2023/03/22 03:39:48;;;;;;;6.97;2.93;;;7.80;99.90;;;;;;5092993;28;20200;-58
2023/03/22 03:42:18;;;;;;;5.37;2.63;;;7.70;99.90;;;;;;5092824;28;20591;-57
2023/03/22 03:44:45;;;;;;;4.23;2.70;;;7.80;99.90;;;;;;5093305;28;20208;-57
2023/03/22 03:47:13;;;;;;;3.00;2.60;;;7.80;99.90;;;;;;5092957;28;20282;-57
2023/03/22 03:49:40;;;;;;;3.73;2.73;;;7.80;99.90;;;;;;5092807;28;20219;-57
2023/03/22 03:52:07;;;;;;;5.27;2.50;;;7.70;99.90;;;;;;5092760;28;20204;-61
2023/03/22 03:54:34;;;;;;;4.00;2.73;;;7.70;99.90;;;;;;5093167;28;20227;-57
2023/03/22 03:57:01;;;;;;;3.07;2.73;;;7.70;99.90;;;;;;5092875;28;20211;-57
2023/03/22 03:59:29;;;;;;;3.80;2.70;;;7.70;99.90;;;;;;5092504;28;20200;-57
2023/03/22 04:01:56;;;;;;;4.43;3.23;;;7.60;99.90;;;;;;5092418;28;20226;-57
2023/03/22 04:04:26;;;;;;;4.63;2.47;;;7.60;99.90;;;;;;5092578;28;20235;-58
2023/03/22 04:06:59;;;;;;;5.93;2.80;;;7.50;99.90;;;;;;5092035;28;20671;-57
2023/03/22 04:09:28;;;;;;;5.10;2.60;;;7.50;99.90;;;;;;5092701;28;20558;-57
2023/03/22 04:11:55;;;;;;;3.87;2.77;;;7.40;99.90;;;;;;5092588;28;20200;-57
2023/03/22 04:14:23;;;;;;;5.20;2.80;;;7.30;99.90;;;;;;5092383;28;20228;-57
2023/03/22 04:16:51;;;;;;;5.17;2.87;;;7.30;99.90;;;;;;5092348;28;20216;-57
2023/03/22 04:19:18;;;;;;;3.80;2.90;;;7.30;99.90;;;;;;5092904;28;20279;-58
2023/03/22 04:21:45;;;;;;;6.17;3.07;;;7.30;99.90;;;;;;5092229;28;20579;-58
2023/03/22 04:24:13;;;;;;;2.87;2.50;;;7.30;99.90;;;;;;5092655;28;20228;-58
2023/03/22 04:26:40;;;;;;;3.30;2.67;;;7.20;99.90;;;;;;5092515;28;20216;-58
2023/03/22 04:29:07;;;;;;;4.37;2.93;;;7.20;99.90;;;;;;5092575;28;20200;-57
2023/03/22 04:31:34;;;;;;;3.83;2.90;;;7.10;99.90;;;;;;5092172;28;20215;-58
2023/03/22 04:34:04;;;;;;;4.47;2.80;;;7.00;99.90;;;;;;5092275;28;20220;-57
2023/03/22 04:36:35;;;;;;;8.50;3.37;;;7.00;99.90;;;;;;5092042;28;20633;-57
2023/03/22 04:39:03;;;;;;;4.90;2.90;;;7.00;99.90;;;;;;5092432;28;20208;-58
2023/03/22 04:41:30;;;;;;;4.63;3.00;;;7.00;99.90;;;;;;5092272;28;20230;-57
2023/03/22 04:44:01;;;;;;;8.17;5.20;;;7.00;99.90;;;;;;5092880;28;20266;-57
2023/03/22 04:46:28;;;;;;;8.23;5.47;;;6.90;99.90;;;;;;5092605;28;20574;-57
2023/03/22 04:48:55;;;;;;;9.20;4.17;;;6.90;99.90;;;;;;5092514;28;20207;-57
2023/03/22 04:51:23;;;;;;;5.93;2.90;;;6.90;99.90;;;;;;5092208;28;20256;-57
2023/03/22 04:53:50;;;;;;;6.07;3.20;;;7.00;99.90;;;;;;5092440;28;20231;-57
2023/03/22 04:56:17;;;;;;;4.50;3.13;;;7.10;99.90;;;;;;5092420;28;20208;-57
2023/03/22 04:58:44;;;;;;;6.50;3.33;;;7.10;99.90;;;;;;5092376;28;20200;-56
2023/03/22 05:01:13;;;;;;;6.07;3.10;;;7.00;99.90;;;;;;5091780;28;20627;-57
2023/03/22 05:03:41;;;;;;;5.10;3.13;;;6.90;99.90;;;;;;5091951;28;20274;-56
2023/03/22 05:06:09;;;;;;;4.90;3.00;;;6.90;99.90;;;;;;5092068;28;20214;-56
2023/03/22 05:08:38;;;;;;;4.27;3.30;;;6.80;99.90;;;;;;5092521;28;20254;-57
2023/03/22 05:11:07;;;;;;;4.07;3.00;;;6.80;99.90;;;;;;5091622;28;20587;-56
2023/03/22 05:13:35;;;;;;;4.13;2.90;;;6.80;99.90;;;;;;5092298;28;20224;-56
2023/03/22 05:16:02;;;;;;;5.07;3.20;;;6.80;99.90;;;;;;5091668;28;20740;-56
2023/03/22 05:18:29;;;;;;;6.13;3.30;;;6.70;99.90;;;;;;5094009;28;20679;-56
2023/03/22 05:20:56;;;;;;;6.07;3.17;;;6.70;99.90;;;;;;5095241;28;20210;-57
2023/03/22 05:23:24;;;;;;;4.37;3.00;;;6.70;99.90;;;;;;5095394;28;20220;-56
2023/03/22 05:25:53;;;;;;;5.07;3.37;;;6.70;99.90;;;;;;5095642;28;20211;-56
2023/03/22 05:28:21;;;;;;;4.53;3.07;;;6.70;99.90;;;;;;5095448;28;20628;-56
2023/03/22 05:30:50;;;;;;;5.00;3.10;;;6.80;99.90;;;;;;5095339;28;20210;-57
2023/03/22 05:33:20;;;;;;;3.50;3.07;;;6.80;99.90;;;;;;5095219;28;20227;-56
2023/03/22 05:35:48;;;;;;;5.23;2.87;;;6.90;99.90;;;;;;5095115;28;20660;-57
2023/03/22 05:38:15;;;;;;;3.77;3.00;;;7.00;99.90;;;;;;5095098;28;20239;-56
2023/03/22 05:40:42;;;;;;;3.20;2.90;;;7.10;99.90;;;;;;5095222;28;20208;-58
2023/03/22 05:43:10;;;;;;;5.07;3.20;;;7.20;99.90;;;;;;5094605;28;20235;-57
2023/03/22 05:45:37;;;;;;;3.90;2.90;;;7.20;99.90;;;;;;5095183;28;20204;-57
2023/03/22 05:48:04;;;;;;;5.33;3.10;;;7.40;99.90;;;;;;5094748;28;20298;-56
2023/03/22 05:50:31;;;;;;;3.97;2.83;;;7.50;99.90;;;;;;5094850;28;20204;-57
2023/03/22 05:52:58;;;;;;;4.00;3.13;;;7.70;99.90;;;;;;5094490;28;20761;-57
2023/03/22 05:55:24;;;;;;;4.70;3.40;;;7.80;99.90;;;;;;5094796;28;20207;-56
2023/03/22 05:57:53;;;;;;;4.93;3.00;;;7.90;99.90;;;;;;5094585;28;20211;-56
2023/03/22 06:00:22;;;;;;;5.20;2.93;;;8.00;99.90;;;;;;5094502;28;20204;-56
2023/03/22 06:02:51;;;;;;;6.10;3.33;;;8.20;99.90;;;;;;5094155;28;20315;-56
2023/03/22 06:05:19;;;;;;;4.63;3.40;;;8.30;99.90;;;;;;5094306;28;20204;-56
2023/03/22 06:07:46;;;;;;;4.13;3.20;;;8.50;99.90;;;;;;5094646;28;20247;-57
2023/03/22 06:10:14;;;;;;;5.37;3.57;;;8.70;99.90;;;;;;5094446;28;20208;-57
2023/03/22 06:12:41;;;;;;;4.37;3.37;;;8.90;99.90;;;;;;5093990;28;20228;-57
2023/03/22 06:15:09;;;;;;;5.33;3.43;;;9.10;99.90;;;;;;5094126;28;20204;-56
2023/03/22 06:17:37;;;;;;;4.77;3.50;;;9.30;99.90;;;;;;5094129;28;20206;-56
2023/03/22 06:20:08;;;;;;;5.33;3.70;;;9.50;99.90;;;;;;5094376;28;20204;-56
2023/03/22 06:22:35;;;;;;;6.47;3.63;;;9.70;99.90;;;;;;5093996;28;20320;-57
2023/03/22 06:25:02;;;;;;;8.10;3.30;;;9.90;99.90;;;;;;5094200;28;20215;-56
2023/03/22 06:27:29;;;;;;;6.10;3.30;;;10.30;99.90;;;;;;5094178;28;20208;-56
2023/03/22 06:29:56;;;;;;;4.43;2.90;;;11.20;99.90;;;;;;5093227;28;20204;-57
2023/03/22 06:32:25;;;;;;;5.37;3.00;;;12.70;99.90;;;;;;5094062;28;20207;-57
2023/03/22 06:34:53;;;;;;;4.73;2.70;;;14.40;99.90;;;;;;5094318;28;20291;-57
2023/03/22 06:37:20;;;;;;;3.57;2.53;;;15.90;99.90;;;;;;5093888;28;20208;-57
2023/03/22 06:39:47;;;;;;;5.35;2.63;;;17.10;99.90;;;;;;5093841;28;20628;-57
2023/03/22 06:42:14;;;;;;;3.28;2.20;;;18.10;99.90;;;;;;5093248;28;20220;-57
2023/03/22 06:44:43;;;;;;;5.18;3.10;;;19.10;99.90;;;;;;5093585;28;20208;-57
2023/03/22 06:47:10;;;;;;;4.13;2.05;;;20.10;99.90;;;;;;5093393;28;20676;-57
2023/03/22 06:49:37;;;;;;;4.13;2.47;;;21.00;99.90;;;;;;5093527;28;20208;-58
2023/03/22 06:52:06;;;;;;;3.50;2.60;;;21.50;99.90;;;;;;5093344;28;20200;-58
2023/03/22 06:54:33;;;;;;;3.83;3.00;;;22.20;98.10;;;;;;5093761;28;20215;-58
2023/03/22 06:56:59;;;;;;;4.63;2.55;;;22.90;96.20;;;;;;5093390;28;20216;-58
2023/03/22 06:59:27;;;;;;;4.22;2.20;;;23.50;94.30;;;;;;5093483;28;20208;-58
2023/03/22 07:01:54;;;;;;;5.18;2.25;;;23.90;92.30;;;;;;5093137;28;20250;-58
2023/03/22 07:04:21;;;;;;;2.55;2.00;;;24.20;91.30;;;;;;5093261;28;20238;-58
2023/03/22 07:06:48;;;;;;;3.88;1.95;;;24.50;89.90;;;;;;5093363;28;20204;-58
2023/03/22 07:09:16;;;;;;;2.83;1.65;;;25.10;86.90;;;;;;5093153;28;20200;-57
2023/03/22 07:11:43;;;;;;;3.95;1.65;;;25.50;84.40;;;;;;5092881;28;20208;-58
2023/03/22 07:14:10;;;;;;;3.35;2.00;;;25.90;82.00;;;;;;5093135;28;20590;-58
2023/03/22 07:16:37;;;;;;;4.68;1.92;;;26.20;79.60;;;;;;5093022;28;20544;-58
2023/03/22 07:19:04;;;;;;;5.10;2.10;;;26.20;77.60;;;;;;5093078;28;20210;-59
2023/03/22 07:21:30;;;;;;;4.40;1.80;;;26.40;77.30;;;;;;5092998;28;20201;-58
2023/03/22 07:23:57;;;;;;;4.25;2.10;;;27.00;74.60;;;;;;5092903;28;20228;-59
2023/03/22 07:26:26;;;;;;;2.95;1.85;;;27.60;71.90;;;;;;5092971;28;20204;-59
2023/03/22 07:28:53;;;;;;;3.00;1.77;;;27.80;70.90;;;;;;5092890;28;20698;-59
2023/03/22 07:31:20;;;;;;;5.05;1.60;;;28.30;69.10;;;;;;5092857;28;20204;-59
2023/03/22 07:33:47;;;;;;;3.22;1.42;;;28.40;66.80;;;;;;5092864;28;20281;-58
2023/03/22 07:36:14;;;;;;;2.13;1.60;;;28.50;64.90;;;;;;5092925;28;20203;-59
2023/03/22 07:38:41;;;;;;;1.88;1.67;;;28.50;63.80;;;;;;5092886;28;20217;-58
2023/03/22 07:41:08;;;;;;;2.25;1.60;;;28.30;63.70;;;;;;5092126;28;20597;-60
2023/03/22 07:43:36;;;;;;;6.85;1.60;;;28.30;63.70;;;;;;5093763;28;20235;-60
2023/03/22 07:46:03;;;;;;;4.53;1.67;;;28.10;62.30;;;;;;5093367;28;20204;-65
2023/03/22 07:48:31;;;;;;;2.63;1.65;;;27.70;63.00;;;;;;5093964;28;20232;-60
2023/03/22 07:50:58;;;;;;;2.58;1.60;;;27.60;62.30;;;;;;5093192;28;20579;-64
2023/03/22 07:53:26;;;;;;;3.58;1.55;;;27.50;61.80;;;;;;5093762;28;20224;-60
2023/03/22 07:55:53;;;;;;;2.35;1.50;;;27.40;64.10;;;;;;5094954;28;20200;-60
2023/03/22 07:58:20;;;;;;;1.60;1.40;;;27.50;61.40;;;;;;5093755;28;20691;-58
2023/03/22 08:00:49;;;;;;;1.45;1.10;;;27.30;62.40;;;;;;5093552;28;20196;-59
2023/03/22 08:03:16;;;;;;;3.63;1.85;;;26.50;61.80;;;;;;5093386;28;20231;-59
2023/03/22 08:05:43;;;;;;;3.72;1.83;;;25.40;63.80;;;;;;5094212;28;20204;-61
2023/03/22 08:08:12;;;;;;;3.30;1.83;;;24.10;66.20;;;;;;5094678;28;20204;-62
2023/03/22 08:10:39;;;;;;;3.00;1.50;;;22.90;68.80;;;;;;5094984;28;20249;-62
2023/03/22 08:13:05;;;;;;;4.13;2.55;;;21.70;71.90;;;;;;5094580;28;20251;-59
2023/03/22 08:15:32;;;;;;;3.05;1.63;;;20.70;74.70;;;;;;5095736;28;20212;-62
2023/03/22 08:18:00;;;;;;;1.77;1.65;;;19.90;77.40;;;;;;5096852;28;20218;-62
2023/03/22 08:20:27;;;;;;;3.30;1.73;;;19.30;79.50;;;;;;5095111;28;20718;-62
2023/03/22 08:22:54;;;;;;;3.42;1.38;;;18.70;80.70;;;;;;5094785;28;20575;-62
2023/03/22 08:25:22;;;;;;;2.45;1.35;;;18.30;81.50;;;;;;5094342;28;20204;-61
2023/03/22 08:27:49;;;;;;;2.10;1.40;;;18.10;82.70;;;;;;5094092;28;20230;-61
2023/03/22 08:30:15;;;;;;;2.58;1.77;;;18.00;83.90;;;;;;5094238;28;20207;-61
2023/03/22 08:32:42;;;;;;;2.28;1.52;;;17.90;85.60;;;;;;5093616;28;20610;-61
2023/03/22 08:35:11;;;;;;;2.85;1.67;;;18.00;85.60;;;;;;5094546;28;20208;-61
2023/03/22 08:37:40;;;;;;;4.22;1.38;;;17.90;86.60;;;;;;5094202;28;20204;-61
2023/03/22 08:40:09;;;;;;;3.67;1.63;;;17.70;87.80;;;;;;5094889;28;20594;-61
2023/03/22 08:42:36;;;;;;;2.47;1.40;;;17.60;88.10;;;;;;5094698;28;20228;-61
2023/03/22 08:45:03;;;;;;;1.88;1.45;;;17.50;88.60;;;;;;5094718;28;20203;-61
2023/03/22 08:47:30;;;;;;;2.53;1.38;;;17.40;89.40;;;;;;5094896;28;20251;-61
2023/03/22 08:49:57;;;;;;;2.88;1.60;;;17.30;90.10;;;;;;5095700;28;20291;-61
2023/03/22 08:52:25;;;;;;;7.45;1.48;;;17.30;90.40;;;;;;5094930;28;20247;-61
2023/03/22 08:54:53;;;;;;;3.20;1.30;;;17.40;90.60;;;;;;5098529;28;20216;-61
2023/03/22 08:57:22;;;;;;;2.50;1.15;;;17.30;90.60;;;;;;5100415;28;20211;-62
2023/03/22 08:59:51;;;;;;;3.08;1.10;;;17.40;90.50;;;;;;5099823;28;20208;-61
2023/03/22 09:02:18;;;;;;;1.65;1.23;;;17.50;90.30;;;;;;5098492;28;20208;-59
2023/03/22 09:04:44;;;;;;;3.63;1.23;;;17.60;91.10;;;;;;5098178;28;20200;-57
2023/03/22 09:07:11;;;;;;;1.85;1.10;;;17.80;90.70;;;;;;5097974;28;20201;-61
2023/03/22 09:09:39;;;;;;;2.72;0.90;;;18.00;90.50;;;;;;5099870;28;20211;-59
2023/03/22 09:12:07;;;;;;;2.72;0.85;;;18.30;90.10;;;;;;5097824;28;20211;-59
2023/03/22 09:14:34;;;;;;;1.30;1.10;;;18.40;89.30;;;;;;5099247;28;20228;-61
2023/03/22 09:17:01;;;;;;;4.15;1.15;;;18.50;89.40;;;;;;5101021;28;20212;-60
2023/03/22 09:19:28;;;;;;;3.47;1.20;;;18.50;89.30;;;;;;5100717;28;20295;-59
2023/03/22 09:21:55;;;;;;;5.93;3.95;;;18.50;89.50;;;;;;5098599;28;20294;-58
2023/03/22 09:24:22;;;;;;;3.13;1.00;;;18.50;89.70;;;;;;5099344;28;20229;-59
2023/03/22 09:26:51;;;;;;;4.07;1.42;;;18.50;90.00;;;;;;5097810;28;20204;-58
2023/03/22 09:29:18;;;;;;;6.90;1.35;;;18.50;90.00;;;;;;5098400;28;20201;-59
2023/03/22 09:31:47;;;;;;;2.95;1.35;;;18.60;90.20;;;;;;5099865;28;20253;-58
2023/03/22 09:34:14;;;;;;;2.53;1.38;;;18.70;90.30;;;;;;5099234;28;20260;-59
2023/03/22 09:36:41;;;;;;;2.85;1.38;;;18.80;90.30;;;;;;5099091;28;20211;-57
2023/03/22 09:39:09;;;;;;;2.45;1.27;;;18.90;89.80;;;;;;5100578;28;20215;-61
2023/03/22 09:41:39;;;;;;;2.65;1.17;;;18.90;89.30;;;;;;5100388;28;20892;-59
2023/03/22 09:44:12;;;;;;;2.53;1.40;;;19.00;88.90;;;;;;5098823;28;20240;-59
2023/03/22 09:46:43;;;;;;;2.33;1.10;;;19.10;89.70;;;;;;5098414;28;20227;-57
2023/03/22 09:49:14;;;;;;;1.73;0.90;;;19.20;88.30;;;;;;5098871;28;20215;-60
2023/03/22 09:51:42;;;;;;;1.95;1.30;;;19.20;88.90;;;;;;5098147;28;20676;-59
2023/03/22 09:54:20;;;;;;;2.78;1.10;;;19.20;89.20;;;;;;5097863;28;20767;-60
2023/03/22 09:56:50;;;;;;;2.80;1.30;;;19.10;89.10;;;;;;5099247;28;20215;-60
2023/03/22 09:59:25;;;;;;;1.27;1.00;;;19.10;89.80;;;;;;5097738;28;20204;-59
2023/03/22 10:01:58;;;;;;;2.08;1.23;;;19.30;88.70;;;;;;5098545;28;20644;-57
2023/03/22 10:04:42;;;;;;;4.25;1.13;;;19.40;88.00;;;;;;5095988;28;20232;-58
2023/03/22 10:07:18;;;;;;;1.88;1.08;;;19.50;87.70;;;;;;5097562;28;20637;-57
2023/03/22 10:09:53;;;;;;;1.67;0.90;;;19.40;87.90;;;;;;5097423;28;20207;-57
2023/03/22 10:12:27;;;;;;;1.70;0.90;;;19.50;86.60;;;;;;5096272;28;20212;-57
2023/03/22 10:15:05;;;;;;;0.90;0.70;;;19.60;87.00;;;;;;5096561;28;20243;-58
2023/03/22 10:17:32;;;;;;;2.53;1.20;;;19.70;86.20;;;;;;5096131;28;20690;-58
2023/03/22 10:20:04;;;;;;;6.00;1.30;;;19.80;86.30;;;;;;5096086;28;20200;-58
2023/03/22 10:22:35;;;;;;;2.85;1.05;;;19.90;85.70;;;;;;5095532;28;20236;-58
2023/03/22 10:25:04;;;;;;;4.10;1.08;;;20.10;85.20;;;;;;5095923;28;20200;-57
2023/03/22 10:27:32;;;;;;;4.55;1.92;;;20.40;85.00;;;;;;5095215;28;20219;-58
2023/03/22 10:30:06;;;;;;;2.58;1.10;;;20.40;84.70;;;;;;5095638;28;20287;-58
2023/03/22 10:32:41;;;;;;;1.70;0.80;;;20.30;85.20;;;;;;5095925;28;20274;-57
2023/03/22 10:35:14;;;;;;;1.95;0.90;;;20.30;84.90;;;;;;5095229;28;20234;-57
2023/03/22 10:37:43;;;;;;;2.30;0.60;;;20.30;85.50;;;;;;5095369;28;20204;-57
2023/03/22 10:40:17;;;;;;;2.50;0.80;;;20.40;84.50;;;;;;5095339;28;20675;-57
2023/03/22 10:42:52;;;;;;;5.47;1.02;;;20.40;83.70;;;;;;5095753;28;20603;-56
2023/03/22 10:45:22;;;;;;;5.80;1.30;;;20.40;84.40;;;;;;5095660;28;20671;-56
2023/03/22 10:47:58;;;;;;;2.20;1.20;;;20.40;83.80;;;;;;5095798;28;20207;-56
2023/03/22 10:50:30;;;;;;;2.65;0.90;;;20.40;83.20;;;;;;5095331;28;20685;-56
2023/03/22 10:53:02;;;;;;;2.00;0.90;;;20.40;83.70;;;;;;5095173;28;20224;-58
2023/03/22 10:55:30;;;;;;;2.97;1.17;;;20.40;84.30;;;;;;5094481;28;20214;-58
2023/03/22 10:58:08;;;;;;;1.52;0.82;;;20.40;83.40;;;;;;5094132;28;20634;-56
2023/03/22 11:00:36;;;;;;;2.30;0.88;;;20.40;83.30;;;;;;5094443;28;20598;-56
2023/03/22 11:03:06;;;;;;;1.15;0.80;;;20.60;83.00;;;;;;5093806;28;20723;-56
2023/03/22 11:05:33;;;;;;;1.75;0.90;;;20.60;85.10;;;;;;5094741;28;20207;-56
2023/03/22 11:08:03;;;;;;;1.77;1.00;;;20.70;85.50;;;;;;5093888;28;20689;-59
2023/03/22 11:10:32;;;;;;;3.65;1.20;;;21.00;84.20;;;;;;5093928;28;20261;-56
2023/03/22 11:13:17;;;;;;;1.65;0.98;;;21.20;83.30;;;;;;5093346;28;20704;-56
2023/03/22 11:15:53;;;;;;;1.70;1.05;;;21.40;82.70;;;;;;5093303;28;20576;-57
2023/03/22 11:18:20;;;;;;;3.85;1.02;;;21.70;82.60;;;;;;5093600;28;20204;-57
2023/03/22 11:20:57;;;;;;;2.10;1.48;;;21.90;81.10;;;;;;5093659;28;20592;-58
2023/03/22 11:23:25;;;;;;;1.27;0.80;;;22.10;81.10;;;;;;5093815;28;20259;-57
2023/03/22 11:25:56;;;;;;;3.47;1.17;;;22.10;80.60;;;;;;5094372;28;20695;-58
2023/03/22 11:28:28;;;;;;;3.20;1.35;;;22.10;81.50;;;;;;5092415;28;20581;-61
2023/03/22 11:31:02;;;;;;;3.65;0.93;;;22.10;80.40;;;;;;5093504;28;20359;-61
2023/03/22 11:33:30;;;;;;;1.90;0.80;;;22.30;79.80;;;;;;5093366;28;20220;-59
2023/03/22 11:35:58;;;;;;;1.77;0.85;;;22.40;78.90;;;;;;5093306;28;20200;-61
2023/03/22 11:38:29;;;;;;;2.95;0.82;;;22.60;77.90;;;;;;5093281;28;20234;-60
2023/03/22 11:40:59;;;;;;;2.72;1.10;;;22.80;77.80;;;;;;5093053;28;20290;-59
2023/03/22 11:43:31;;;;;;;4.40;0.93;;;23.00;77.60;;;;;;5092656;28;20289;-60
2023/03/22 11:46:01;;;;;;;2.58;0.95;;;23.10;76.90;;;;;;5092601;28;20210;-60
2023/03/22 11:48:30;;;;;;;2.70;1.30;;;23.00;77.40;;;;;;5093088;28;20208;-60
2023/03/22 11:51:04;;;;;;;2.00;1.00;;;22.90;77.30;;;;;;5093048;28;20667;-61
2023/03/22 11:53:34;;;;;;;2.00;0.90;;;22.80;78.00;;;;;;5092270;28;20220;-60
2023/03/22 11:56:06;;;;;;;3.05;1.20;;;22.70;78.10;;;;;;5093495;28;20214;-60
2023/03/22 11:58:47;;;;;;;2.55;1.35;;;22.70;79.00;;;;;;5095506;28;20204;-62
2023/03/22 12:01:20;;;;;;;2.35;1.00;;;22.60;79.30;;;;;;5095943;28;20291;-60
2023/03/22 12:03:55;;;;;;;1.45;0.80;;;22.60;79.10;;;;;;5093000;28;20239;-60
2023/03/22 12:06:27;;;;;;;4.78;1.02;;;22.70;78.80;;;;;;5094105;28;20216;-60
2023/03/22 12:08:58;;;;;;;3.47;1.65;;;22.80;78.00;;;;;;5092151;28;20211;-60
2023/03/22 12:11:29;;;;;;;3.08;1.30;;;23.10;77.10;;;;;;5092501;28;20203;-60
2023/03/22 12:14:00;;;;;;;2.50;1.00;;;23.40;77.20;;;;;;5092430;28;20228;-60
2023/03/22 12:16:35;;;;;;;1.58;0.70;;;23.60;76.80;;;;;;5094152;28;20200;-60
2023/03/22 12:19:13;;;;;;;4.80;1.45;;;23.40;76.40;;;;;;5094282;28;20574;-58
2023/03/22 12:21:41;;;;;;;1.38;0.82;;;23.20;78.50;;;;;;5093360;28;20270;-59
2023/03/22 12:24:26;;;;;;;2.75;1.27;;;23.30;76.50;;;;;;5092905;28;20231;-58
2023/03/22 12:26:57;;;;;;;3.33;0.82;;;23.00;78.30;;;;;;5093910;28;20216;-59
2023/03/22 12:29:25;;;;;;;1.45;0.90;;;23.10;78.40;;;;;;5099817;28;20211;-58
2023/03/22 12:32:00;;;;;;;3.13;1.08;;;23.10;78.40;;;;;;5099920;28;20207;-60
2023/03/22 12:34:36;;;;;;;2.45;1.20;;;23.20;79.70;;;;;;5102471;28;20227;-58
2023/03/22 12:37:07;;;;;;;3.95;1.20;;;23.10;79.70;;;;;;5103076;28;20221;-58
2023/03/22 12:39:39;;;;;;;2.53;0.85;;;22.80;80.30;;;;;;5103380;28;20253;-58
2023/03/22 12:42:13;;;;;;;1.92;0.98;;;22.60;81.60;;;;;;5101921;28;20207;-58
2023/03/22 12:44:43;;;;;;;1.63;1.00;;;22.40;82.40;;;;;;5102568;28;20596;-58
2023/03/22 12:47:21;;;;;;;2.08;0.90;;;22.20;79.80;;;;;;5100947;28;20208;-58
2023/03/22 12:49:55;;;;;;;2.97;0.90;;;22.20;80.70;;;;;;5100934;28;20204;-58
2023/03/22 12:52:36;;;;;;;2.10;1.10;;;22.30;81.60;;;;;;5102189;28;20598;-59
2023/03/22 12:55:04;;;;;;;1.60;1.02;;;22.30;81.80;;;;;;5102349;28;20200;-60
2023/03/22 12:57:32;;;;;;;1.27;0.82;;;22.40;81.50;;;;;;5101988;28;20711;-56
2023/03/22 13:00:08;;;;;;;3.10;0.93;;;22.50;80.50;;;;;;5100158;28;20212;-56
2023/03/22 13:02:37;;;;;;;2.80;1.38;;;22.50;79.40;;;;;;5100372;28;20232;-62
2023/03/22 13:05:08;;;;;;;2.88;0.80;;;22.80;79.40;;;;;;5100277;28;20277;-62